Time;durP1;ratioP1;P1;durP2;ratioP2;P2;SDS_P1;SDS_P2;PMS_P1;PMS_P2;Temp;Humidity;BMP_temperature;BMP_pressure;BME280_temperature;BME280_humidity;BME280_pressure;Samples;Min_cycle;Max_cycle;Signal;HPM_P1;HPM_P2
2022/08/27 00:01:24;;;;;;;15.53;3.63;;;20.70;97.30;;;;;;5051598;28;20326;-88
2022/08/27 00:03:51;;;;;;;20.43;5.87;;;20.60;97.30;;;;;;5051959;28;20664;-87
2022/08/27 00:06:18;;;;;;;4.27;2.60;;;20.70;97.30;;;;;;5051283;28;20422;-87
2022/08/27 00:08:46;;;;;;;5.40;3.47;;;20.70;97.30;;;;;;5051610;28;20421;-87
2022/08/27 00:11:12;;;;;;;6.30;3.33;;;20.70;97.30;;;;;;5051263;28;20506;-87
2022/08/27 00:13:38;;;;;;;8.83;3.43;;;20.70;97.30;;;;;;5051727;28;20415;-88
2022/08/27 00:16:05;;;;;;;3.50;2.77;;;20.60;97.30;;;;;;5051708;28;20413;-87
2022/08/27 00:18:33;;;;;;;8.10;3.50;;;20.60;97.30;;;;;;5051014;28;20235;-87
2022/08/27 00:20:59;;;;;;;8.30;3.13;;;20.60;97.30;;;;;;5051582;28;20803;-87
2022/08/27 00:23:25;;;;;;;3.33;2.57;;;20.60;97.30;;;;;;5051540;28;20451;-87
2022/08/27 00:25:51;;;;;;;27.20;5.30;;;20.60;97.30;;;;;;5051146;28;20421;-87
2022/08/27 00:28:17;;;;;;;4.03;3.67;;;20.60;97.30;;;;;;5052481;28;20789;-88
2022/08/27 00:30:42;;;;;;;4.80;3.17;;;20.60;97.30;;;;;;5051580;28;20294;-87
2022/08/27 00:33:08;;;;;;;5.03;3.00;;;20.60;97.30;;;;;;5050952;28;20180;-87
2022/08/27 00:35:34;;;;;;;13.43;3.23;;;20.60;97.30;;;;;;5050915;28;20187;-87
2022/08/27 00:38:00;;;;;;;11.73;4.53;;;20.60;97.30;;;;;;5050754;28;20176;-87
2022/08/27 00:40:26;;;;;;;4.13;3.00;;;20.60;97.30;;;;;;5050903;28;20691;-88
2022/08/27 00:42:52;;;;;;;5.57;3.80;;;20.50;97.30;;;;;;5050658;28;20183;-88
2022/08/27 00:45:21;;;;;;;7.53;3.03;;;20.50;97.30;;;;;;5050665;28;20411;-88
2022/08/27 00:47:53;;;;;;;13.00;6.30;;;20.50;97.30;;;;;;5050483;28;20513;-88
2022/08/27 00:50:36;;;;;;;7.50;3.57;;;20.50;97.30;;;;;;5050543;28;20438;-88
2022/08/27 00:53:06;;;;;;;5.50;4.90;;;20.50;97.30;;;;;;5050325;28;20452;-88
2022/08/27 00:55:36;;;;;;;7.13;3.60;;;20.50;97.30;;;;;;5049036;28;20484;-88
2022/08/27 00:58:25;;;;;;;6.57;3.97;;;20.50;97.30;;;;;;5050631;28;20666;-88
2022/08/27 01:00:51;;;;;;;6.97;3.53;;;20.60;97.30;;;;;;5050274;28;20477;-88
2022/08/27 01:03:17;;;;;;;6.60;3.80;;;20.60;97.30;;;;;;5050579;28;20422;-88
2022/08/27 01:05:45;;;;;;;5.57;3.73;;;20.50;97.30;;;;;;5050527;28;20418;-87
2022/08/27 01:08:20;;;;;;;3.50;2.13;;;20.60;97.30;;;;;;5050354;28;20189;-88
2022/08/27 01:10:47;;;;;;;5.73;3.13;;;20.60;97.30;;;;;;5050561;28;20500;-88
2022/08/27 01:13:17;;;;;;;6.73;3.13;;;20.60;97.30;;;;;;5050147;28;20414;-87
2022/08/27 01:15:43;;;;;;;6.10;3.50;;;20.60;97.30;;;;;;5050407;28;20418;-87
2022/08/27 01:18:12;;;;;;;4.90;2.53;;;20.60;97.30;;;;;;5050245;28;20912;-88
2022/08/27 01:21:19;;;;;;;5.97;4.23;;;20.60;97.30;;;;;;5050490;28;20442;-88
2022/08/27 01:23:57;;;;;;;6.27;4.27;;;20.60;97.30;;;;;;5049928;28;20508;-88
2022/08/27 01:26:23;;;;;;;7.53;4.70;;;20.60;97.30;;;;;;5049936;28;20417;-88
2022/08/27 01:28:50;;;;;;;5.13;4.07;;;20.50;97.30;;;;;;5049943;28;20428;-88
2022/08/27 01:31:15;;;;;;;9.90;4.83;;;20.50;97.30;;;;;;5049725;28;20458;-88
2022/08/27 01:33:59;;;;;;;9.43;4.83;;;20.50;97.30;;;;;;5049748;28;20422;-88
2022/08/27 01:36:25;;;;;;;6.07;4.10;;;20.50;97.30;;;;;;5049608;28;20203;-87
2022/08/27 01:38:50;;;;;;;18.33;7.83;;;20.50;97.30;;;;;;5049130;28;20811;-88
2022/08/27 01:41:19;;;;;;;8.80;4.70;;;20.40;97.30;;;;;;5049845;28;20667;-88
2022/08/27 01:43:45;;;;;;;11.10;4.13;;;20.40;97.30;;;;;;5049617;28;20188;-88
2022/08/27 01:46:10;;;;;;;7.23;4.10;;;20.40;97.30;;;;;;5049649;28;20967;-88
2022/08/27 01:48:36;;;;;;;8.30;4.60;;;20.40;97.30;;;;;;5049498;28;20787;-88
2022/08/27 01:51:02;;;;;;;4.87;2.87;;;20.40;97.30;;;;;;5050932;28;20273;-88
2022/08/27 01:53:29;;;;;;;7.07;5.27;;;20.40;97.30;;;;;;5049912;28;20219;-88
2022/08/27 01:55:55;;;;;;;6.90;4.20;;;20.40;97.30;;;;;;5049479;28;20919;-88
2022/08/27 01:58:26;;;;;;;11.20;4.70;;;20.40;97.30;;;;;;5049515;28;20418;-88
2022/08/27 02:00:57;;;;;;;4.20;3.10;;;20.40;97.30;;;;;;5050643;28;21536;-88
2022/08/27 02:03:23;;;;;;;9.70;5.20;;;20.40;97.30;;;;;;5012401;22;20505;-90
2022/08/27 02:05:48;;;;;;;7.97;4.00;;;20.40;97.30;;;;;;4991588;28;20525;-90
2022/08/27 02:08:16;;;;;;;10.10;5.50;;;20.40;97.30;;;;;;4991748;28;20882;-90
2022/08/27 02:10:43;;;;;;;8.70;5.07;;;20.50;97.30;;;;;;4991319;28;20220;-90
2022/08/27 02:13:12;;;;;;;7.30;4.77;;;20.50;97.30;;;;;;4991655;28;20468;-90
2022/08/27 02:15:39;;;;;;;5.27;3.10;;;20.40;97.30;;;;;;4991692;28;20421;-90
2022/08/27 02:18:06;;;;;;;8.63;4.60;;;20.40;97.30;;;;;;4991668;28;20914;-90
2022/08/27 02:20:32;;;;;;;11.80;4.77;;;20.40;97.30;;;;;;4991318;28;20437;-90
2022/08/27 02:22:58;;;;;;;8.17;5.30;;;20.40;97.30;;;;;;4991415;28;20413;-90
2022/08/27 02:25:25;;;;;;;5.87;4.13;;;20.40;97.30;;;;;;4991867;28;20856;-90
2022/08/27 02:27:51;;;;;;;12.30;7.37;;;20.40;97.30;;;;;;4991177;28;20193;-90
2022/08/27 02:30:20;;;;;;;11.40;4.60;;;20.40;97.30;;;;;;4990767;28;20468;-90
2022/08/27 02:32:47;;;;;;;14.63;4.43;;;20.40;97.30;;;;;;4991533;28;20236;-90
2022/08/27 02:35:14;;;;;;;5.83;3.90;;;20.40;97.30;;;;;;4992722;28;20401;-90
2022/08/27 02:37:40;;;;;;;9.90;5.00;;;20.30;97.30;;;;;;4990941;28;20421;-90
2022/08/27 02:40:07;;;;;;;9.40;4.50;;;20.30;97.30;;;;;;4991225;28;20942;-89
2022/08/27 02:42:33;;;;;;;12.27;5.63;;;20.30;97.30;;;;;;4992316;28;20166;-89
2022/08/27 02:44:59;;;;;;;8.20;5.07;;;20.30;97.30;;;;;;4990857;28;20444;-89
2022/08/27 02:47:25;;;;;;;7.87;5.57;;;20.30;97.30;;;;;;4991051;28;20499;-90
2022/08/27 02:49:51;;;;;;;8.33;5.27;;;20.30;97.30;;;;;;4992607;28;20205;-89
2022/08/27 02:52:16;;;;;;;9.30;4.60;;;20.30;97.30;;;;;;4994375;28;20201;-89
2022/08/27 02:54:43;;;;;;;8.07;4.13;;;20.20;97.30;;;;;;4995385;28;21074;-89
2022/08/27 02:57:08;;;;;;;5.43;3.10;;;20.20;97.30;;;;;;4994847;28;20177;-89
2022/08/27 02:59:34;;;;;;;5.83;3.53;;;20.20;97.30;;;;;;4994671;28;20524;-89
2022/08/27 03:02:00;;;;;;;12.30;5.20;;;20.20;97.30;;;;;;5000683;28;20252;-89
2022/08/27 03:04:27;;;;;;;9.33;3.90;;;20.20;97.30;;;;;;5013636;28;20471;-89
2022/08/27 03:06:53;;;;;;;8.90;4.87;;;20.20;97.30;;;;;;5002453;28;20185;-88
2022/08/27 03:09:19;;;;;;;9.50;2.90;;;20.10;97.30;;;;;;4994322;28;20793;-89
2022/08/27 03:11:45;;;;;;;6.97;4.43;;;20.10;97.30;;;;;;4994148;28;20459;-89
2022/08/27 03:14:11;;;;;;;7.30;4.33;;;20.10;97.30;;;;;;4994046;28;20849;-89
2022/08/27 03:16:38;;;;;;;8.73;4.43;;;20.10;97.30;;;;;;4994007;28;20220;-89
2022/08/27 03:19:05;;;;;;;10.00;6.30;;;20.10;97.30;;;;;;4994977;28;20424;-89
2022/08/27 03:21:32;;;;;;;11.93;4.90;;;20.10;97.30;;;;;;4994060;28;20524;-89
2022/08/27 03:24:00;;;;;;;17.93;4.80;;;20.10;97.30;;;;;;4993740;28;20421;-89
2022/08/27 03:26:26;;;;;;;9.70;5.30;;;20.10;97.30;;;;;;4994453;28;20432;-89
2022/08/27 03:28:52;;;;;;;15.47;4.47;;;20.10;97.30;;;;;;4994150;28;20456;-89
2022/08/27 03:31:25;;;;;;;8.80;3.43;;;20.00;97.30;;;;;;4993750;28;20460;-89
2022/08/27 03:33:52;;;;;;;13.00;5.77;;;20.00;97.30;;;;;;4993661;28;20198;-89
2022/08/27 03:36:17;;;;;;;7.80;4.10;;;20.00;97.30;;;;;;4993820;28;20463;-89
2022/08/27 03:38:43;;;;;;;6.33;4.20;;;20.00;97.30;;;;;;4993572;28;20417;-89
2022/08/27 03:41:08;;;;;;;9.00;3.80;;;20.00;97.30;;;;;;4993143;28;20186;-89
2022/08/27 03:43:34;;;;;;;11.80;5.07;;;19.90;97.30;;;;;;4993687;28;20216;-90
2022/08/27 03:46:00;;;;;;;7.23;5.43;;;19.90;97.30;;;;;;4994017;28;20212;-89
2022/08/27 03:48:27;;;;;;;9.23;4.80;;;19.90;97.30;;;;;;4994182;28;20456;-89
2022/08/27 03:50:53;;;;;;;5.53;4.53;;;19.90;97.30;;;;;;4993917;28;20229;-89
2022/08/27 03:53:22;;;;;;;6.90;3.40;;;19.80;97.30;;;;;;4994168;28;20857;-91
2022/08/27 03:55:47;;;;;;;7.80;4.43;;;19.80;97.30;;;;;;4993954;28;20428;-89
2022/08/27 03:58:14;;;;;;;8.87;4.33;;;19.80;97.30;;;;;;4993264;28;20413;-89
2022/08/27 04:00:41;;;;;;;17.90;4.37;;;19.80;97.30;;;;;;4992665;28;20548;-90
2022/08/27 04:03:07;;;;;;;11.47;5.47;;;19.80;97.30;;;;;;4993216;28;20475;-89
2022/08/27 04:05:33;;;;;;;6.83;3.87;;;19.80;97.30;;;;;;4993155;28;20425;-89
2022/08/27 04:07:59;;;;;;;5.67;2.93;;;19.80;97.30;;;;;;4992805;28;20437;-89
2022/08/27 04:10:26;;;;;;;4.10;3.30;;;19.80;97.30;;;;;;4992742;28;20441;-89
2022/08/27 04:12:52;;;;;;;10.00;4.50;;;19.80;97.30;;;;;;4993206;28;20568;-89
2022/08/27 04:15:18;;;;;;;7.37;4.33;;;19.70;97.30;;;;;;4992876;28;20420;-89
2022/08/27 04:17:44;;;;;;;8.07;4.57;;;19.70;97.30;;;;;;4992528;28;20759;-89
2022/08/27 04:20:11;;;;;;;6.37;4.03;;;19.70;97.30;;;;;;4992462;28;20217;-89
2022/08/27 04:22:38;;;;;;;7.07;3.07;;;19.70;97.30;;;;;;4992365;28;20178;-89
2022/08/27 04:25:04;;;;;;;5.40;3.00;;;19.70;97.30;;;;;;4992454;28;20424;-89
2022/08/27 04:27:30;;;;;;;6.03;2.83;;;19.70;97.30;;;;;;4992253;28;20428;-89
2022/08/27 04:29:57;;;;;;;8.47;4.50;;;19.70;97.30;;;;;;4992705;28;20475;-89
2022/08/27 04:32:24;;;;;;;11.00;5.67;;;19.70;97.30;;;;;;4992328;28;20496;-89
2022/08/27 04:34:58;;;;;;;4.87;3.17;;;19.60;97.30;;;;;;4992237;28;20412;-89
2022/08/27 04:37:28;;;;;;;4.20;3.77;;;19.60;97.30;;;;;;4992219;28;20421;-89
2022/08/27 04:39:54;;;;;;;6.53;4.53;;;19.60;97.30;;;;;;4992550;28;20437;-89
2022/08/27 04:42:20;;;;;;;5.40;2.70;;;19.60;97.30;;;;;;4992388;28;20429;-88
2022/08/27 04:44:47;;;;;;;4.93;3.07;;;19.60;97.30;;;;;;4992617;28;20472;-89
2022/08/27 04:47:13;;;;;;;5.77;3.37;;;19.70;97.30;;;;;;4992143;28;20185;-89
2022/08/27 04:49:39;;;;;;;7.07;3.30;;;19.70;97.30;;;;;;4992231;28;20512;-89
2022/08/27 04:52:05;;;;;;;4.60;3.03;;;19.70;97.30;;;;;;4991710;28;20599;-89
2022/08/27 04:54:32;;;;;;;4.30;2.57;;;19.60;97.30;;;;;;4992065;28;20266;-88
2022/08/27 04:56:57;;;;;;;9.20;3.10;;;19.60;97.30;;;;;;4992025;28;20790;-89
2022/08/27 04:59:23;;;;;;;7.60;4.10;;;19.70;97.30;;;;;;4992169;28;20448;-89
2022/08/27 05:01:49;;;;;;;8.67;4.17;;;19.70;97.30;;;;;;4991520;28;20679;-89
2022/08/27 05:04:17;;;;;;;5.43;2.33;;;19.70;97.30;;;;;;4991966;28;20706;-89
2022/08/27 05:06:44;;;;;;;5.03;3.47;;;19.70;97.30;;;;;;4981887;28;20928;-89
2022/08/27 05:09:11;;;;;;;4.37;2.93;;;19.70;97.30;;;;;;4972386;28;20533;-89
2022/08/27 05:11:37;;;;;;;4.70;3.87;;;19.70;97.30;;;;;;4971841;28;20472;-89
2022/08/27 05:14:05;;;;;;;2.93;2.10;;;19.70;97.30;;;;;;4972124;28;20410;-89
2022/08/27 05:16:32;;;;;;;8.23;5.23;;;19.80;97.30;;;;;;4972516;28;20179;-88
2022/08/27 05:18:58;;;;;;;7.10;4.10;;;19.80;97.30;;;;;;4971992;28;20840;-89
2022/08/27 05:21:31;;;;;;;3.83;2.50;;;19.80;97.30;;;;;;4972387;28;20853;-89
2022/08/27 05:23:58;;;;;;;7.40;4.00;;;19.70;97.30;;;;;;4972015;28;20970;-89
2022/08/27 05:26:24;;;;;;;14.97;4.07;;;19.80;97.30;;;;;;4971657;28;20421;-89
2022/08/27 05:28:50;;;;;;;4.53;3.70;;;19.80;97.30;;;;;;4972174;28;20424;-89
2022/08/27 05:31:18;;;;;;;5.10;2.87;;;19.70;97.30;;;;;;4971808;28;21050;-89
2022/08/27 05:33:44;;;;;;;9.10;4.70;;;19.70;97.30;;;;;;4971876;28;20185;-89
2022/08/27 05:36:19;;;;;;;7.27;4.43;;;19.70;97.30;;;;;;4973323;28;20472;-88
2022/08/27 05:38:45;;;;;;;5.60;3.03;;;19.70;97.30;;;;;;4972186;28;20476;-88
2022/08/27 05:41:15;;;;;;;4.43;3.40;;;19.70;97.30;;;;;;4972492;28;20417;-89
2022/08/27 05:43:42;;;;;;;17.20;2.93;;;19.80;97.30;;;;;;4971834;28;20183;-89
2022/08/27 05:46:13;;;;;;;6.37;3.50;;;19.80;97.30;;;;;;4971682;28;20468;-89
2022/08/27 05:48:40;;;;;;;9.90;3.10;;;19.80;97.30;;;;;;4971871;28;20509;-89
2022/08/27 05:51:16;;;;;;;4.13;3.73;;;19.80;97.30;;;;;;4971898;28;20462;-89
2022/08/27 05:53:42;;;;;;;4.53;3.43;;;19.80;97.30;;;;;;4971592;28;20449;-89
2022/08/27 05:56:13;;;;;;;6.80;3.63;;;19.80;97.30;;;;;;4971453;28;20418;-89
2022/08/27 06:01:23;;;;;;;24.70;6.00;;;19.80;97.30;;;;;;4974289;28;20405;-89
2022/08/27 06:03:51;;;;;;;19.13;3.27;;;19.90;97.30;;;;;;4974334;28;20425;-90
2022/08/27 06:06:17;;;;;;;9.33;4.77;;;19.90;97.30;;;;;;4982478;28;20351;-89
2022/08/27 06:08:42;;;;;;;8.47;5.17;;;19.90;97.30;;;;;;5014038;28;20461;-89
2022/08/27 06:11:09;;;;;;;7.20;3.87;;;19.90;97.30;;;;;;5013828;28;20240;-89
2022/08/27 06:13:35;;;;;;;21.60;6.50;;;19.90;97.30;;;;;;5031572;28;20622;-89
2022/08/27 06:16:07;;;;;;;7.87;4.03;;;19.90;97.30;;;;;;5013665;28;20465;-89
2022/08/27 06:18:33;;;;;;;6.30;3.60;;;19.90;97.30;;;;;;5013883;28;20188;-89
2022/08/27 06:20:59;;;;;;;13.97;7.30;;;19.90;97.30;;;;;;5013797;28;20435;-89
2022/08/27 06:23:25;;;;;;;17.50;4.80;;;19.80;97.30;;;;;;5015237;28;20444;-89
2022/08/27 06:25:51;;;;;;;6.50;3.53;;;19.80;97.30;;;;;;5018245;28;20561;-90
2022/08/27 06:28:20;;;;;;;15.77;5.63;;;19.80;97.30;;;;;;5018082;28;20411;-89
2022/08/27 06:30:45;;;;;;;11.23;6.83;;;19.80;97.30;;;;;;5017986;28;20270;-88
2022/08/27 06:33:11;;;;;;;15.33;5.57;;;19.90;97.30;;;;;;5017769;28;20419;-89
2022/08/27 06:35:37;;;;;;;22.20;8.50;;;19.90;97.30;;;;;;5018084;28;20172;-89
2022/08/27 06:38:02;;;;;;;8.70;3.67;;;19.90;97.30;;;;;;5018079;28;20172;-89
2022/08/27 06:40:28;;;;;;;7.93;4.20;;;19.90;97.30;;;;;;5017867;28;20196;-89
2022/08/27 06:42:54;;;;;;;10.57;7.30;;;19.90;97.30;;;;;;5035248;28;20165;-89
2022/08/27 06:45:20;;;;;;;15.73;5.53;;;20.00;97.30;;;;;;5017668;28;20785;-89
2022/08/27 06:47:45;;;;;;;14.67;6.40;;;20.00;97.30;;;;;;5017547;28;20466;-89
2022/08/27 06:50:11;;;;;;;8.07;4.00;;;20.00;97.30;;;;;;5017382;28;20246;-89
2022/08/27 06:52:36;;;;;;;22.23;5.20;;;20.00;97.30;;;;;;5017580;28;20208;-89
2022/08/27 06:55:03;;;;;;;14.43;6.00;;;20.00;97.30;;;;;;5016859;28;20172;-90
2022/08/27 06:57:28;;;;;;;9.60;5.60;;;20.00;97.30;;;;;;5016781;28;20246;-88
2022/08/27 06:59:54;;;;;;;11.00;4.80;;;20.00;97.30;;;;;;5016759;28;20438;-88
2022/08/27 07:02:20;;;;;;;8.57;4.73;;;20.10;97.30;;;;;;5013312;28;20748;-89
2022/08/27 07:04:46;;;;;;;11.90;3.97;;;20.00;97.30;;;;;;5014120;28;20231;-88
2022/08/27 07:07:12;;;;;;;7.40;4.47;;;20.10;97.30;;;;;;4999600;28;20184;-90
2022/08/27 07:09:39;;;;;;;9.87;4.13;;;20.10;97.30;;;;;;4993869;28;20460;-88
2022/08/27 07:12:05;;;;;;;7.70;3.50;;;20.10;97.30;;;;;;4993936;28;20476;-88
2022/08/27 07:14:32;;;;;;;7.40;4.93;;;20.10;97.30;;;;;;4995214;28;20405;-89
2022/08/27 07:16:58;;;;;;;10.07;5.60;;;20.10;97.30;;;;;;4993734;28;20417;-89
2022/08/27 07:19:24;;;;;;;14.03;6.17;;;20.20;97.30;;;;;;4994010;28;20460;-88
2022/08/27 07:21:49;;;;;;;8.63;4.20;;;20.20;97.30;;;;;;4994582;28;20185;-88
2022/08/27 07:24:15;;;;;;;21.60;7.40;;;20.20;97.30;;;;;;4993741;28;20174;-88
2022/08/27 07:26:42;;;;;;;10.47;4.87;;;20.20;97.30;;;;;;4994001;28;20185;-88
2022/08/27 07:29:10;;;;;;;17.70;6.13;;;20.20;97.30;;;;;;4995286;28;20308;-88
2022/08/27 07:31:35;;;;;;;19.53;5.80;;;20.20;97.30;;;;;;4993715;28;20453;-88
2022/08/27 07:34:03;;;;;;;16.77;8.77;;;20.30;97.30;;;;;;4993664;28;20412;-89
2022/08/27 07:36:28;;;;;;;10.80;5.13;;;20.30;97.30;;;;;;4993057;28;20201;-88
2022/08/27 07:38:54;;;;;;;13.00;6.63;;;20.30;97.30;;;;;;4993816;28;20914;-88
2022/08/27 07:41:20;;;;;;;10.83;5.13;;;20.30;97.30;;;;;;4993795;28;20579;-87
2022/08/27 07:46:30;;;;;;;9.87;4.70;;;20.40;97.30;;;;;;4994990;28;20647;-88
2022/08/27 07:48:56;;;;;;;12.57;4.87;;;20.30;97.30;;;;;;4994487;28;20408;-89
2022/08/27 07:51:24;;;;;;;15.63;3.93;;;20.30;97.30;;;;;;4993641;28;20638;-88
2022/08/27 07:53:51;;;;;;;6.83;4.40;;;20.30;97.30;;;;;;4993062;28;20436;-88
2022/08/27 07:56:17;;;;;;;12.13;6.70;;;20.30;97.30;;;;;;4993318;28;20425;-88
2022/08/27 07:58:43;;;;;;;16.23;5.23;;;20.30;97.30;;;;;;4993284;28;20419;-89
2022/08/27 08:01:09;;;;;;;9.77;7.07;;;20.30;97.30;;;;;;4993829;28;20448;-88
2022/08/27 08:35:07;;;;;;;8.87;5.20;;;20.70;97.30;;;;;;5070385;28;20469;-88
2022/08/27 08:37:33;;;;;;;10.90;6.10;;;20.70;97.30;;;;;;5054632;28;20410;-88
2022/08/27 08:39:59;;;;;;;12.83;6.50;;;20.70;97.30;;;;;;5054214;28;20508;-88
2022/08/27 08:42:28;;;;;;;15.83;9.50;;;20.70;97.30;;;;;;5054156;28;20417;-87
2022/08/27 08:44:56;;;;;;;13.43;5.90;;;20.70;97.30;;;;;;5054017;28;20609;-87
2022/08/27 08:47:26;;;;;;;7.90;4.87;;;20.70;97.30;;;;;;5054116;28;20417;-87
2022/08/27 08:50:04;;;;;;;16.60;5.80;;;20.70;97.30;;;;;;5053970;28;20429;-87
2022/08/27 08:52:55;;;;;;;8.40;4.73;;;20.70;97.30;;;;;;5054032;28;20457;-88
2022/08/27 08:55:50;;;;;;;11.73;4.00;;;20.80;97.30;;;;;;5053634;28;20441;-88
2022/08/27 08:58:37;;;;;;;17.73;6.77;;;20.80;97.30;;;;;;5043262;28;20413;-88
2022/08/27 09:01:05;;;;;;;15.20;7.43;;;20.80;97.30;;;;;;5053789;28;20437;-87
2022/08/27 09:03:35;;;;;;;11.70;5.43;;;20.80;97.30;;;;;;5053584;28;20422;-86
2022/08/27 09:06:17;;;;;;;9.07;4.77;;;20.80;97.30;;;;;;5053711;28;20424;-87
2022/08/27 09:08:44;;;;;;;12.77;4.17;;;20.80;97.30;;;;;;5071286;28;20428;-87
2022/08/27 09:11:35;;;;;;;7.00;4.27;;;20.80;97.30;;;;;;5053300;28;20459;-87
2022/08/27 09:14:21;;;;;;;17.40;5.93;;;20.80;97.30;;;;;;5053486;28;20771;-87
2022/08/27 09:16:47;;;;;;;12.43;6.40;;;20.80;97.30;;;;;;5054096;28;20504;-87
2022/08/27 09:19:12;;;;;;;7.53;5.13;;;20.90;97.30;;;;;;5053239;28;20924;-87
2022/08/27 09:21:54;;;;;;;15.60;4.57;;;20.90;97.30;;;;;;5053554;28;20183;-87
2022/08/27 09:24:33;;;;;;;8.30;4.00;;;20.90;97.30;;;;;;5053554;28;20187;-87
2022/08/27 09:26:59;;;;;;;15.60;5.77;;;20.90;97.30;;;;;;5053318;28;20969;-86
2022/08/27 09:29:27;;;;;;;12.10;5.43;;;20.90;97.30;;;;;;5053474;28;20773;-87
2022/08/27 09:32:02;;;;;;;9.00;4.70;;;20.90;97.30;;;;;;5071864;28;21040;-89
2022/08/27 09:34:34;;;;;;;8.37;4.57;;;21.00;97.30;;;;;;5071101;28;20556;-87
2022/08/27 09:37:03;;;;;;;15.73;6.60;;;21.00;97.30;;;;;;5053331;28;20421;-87
2022/08/27 09:39:39;;;;;;;8.03;4.47;;;21.00;97.30;;;;;;5053201;28;20445;-87
2022/08/27 09:42:06;;;;;;;8.33;5.70;;;21.10;97.30;;;;;;5053517;28;20420;-87
2022/08/27 09:44:44;;;;;;;8.27;4.90;;;21.10;97.30;;;;;;5053326;28;20413;-87
2022/08/27 09:47:14;;;;;;;6.97;4.43;;;21.20;97.30;;;;;;5053724;28;20476;-88
2022/08/27 09:49:40;;;;;;;8.43;5.57;;;21.20;97.30;;;;;;5052855;28;20438;-87
2022/08/27 09:52:06;;;;;;;8.87;4.40;;;21.30;97.30;;;;;;5053505;28;20484;-88
2022/08/27 09:54:45;;;;;;;10.93;6.17;;;21.30;97.30;;;;;;5053641;28;20982;-88
2022/08/27 09:57:14;;;;;;;6.10;2.80;;;21.30;97.30;;;;;;5053867;28;20792;-87
2022/08/27 09:59:49;;;;;;;11.77;5.07;;;21.30;97.30;;;;;;5052848;28;20430;-87
2022/08/27 10:02:22;;;;;;;6.03;3.50;;;21.30;97.30;;;;;;5053362;28;20417;-88
2022/08/27 10:04:54;;;;;;;3.73;2.30;;;21.30;97.30;;;;;;5053140;28;20641;-88
2022/08/27 10:07:51;;;;;;;3.83;3.37;;;21.20;97.30;;;;;;5053601;28;20455;-87
2022/08/27 10:10:28;;;;;;;5.93;3.10;;;21.00;97.30;;;;;;5058356;28;20467;-86
2022/08/27 10:13:25;;;;;;;6.03;2.70;;;20.90;97.30;;;;;;5053349;28;20506;-87
2022/08/27 10:16:15;;;;;;;3.00;2.70;;;20.80;97.30;;;;;;5053215;28;20412;-87
2022/08/27 10:19:02;;;;;;;8.57;5.33;;;20.70;97.30;;;;;;5053205;28;20494;-88
2022/08/27 10:21:48;;;;;;;7.40;5.33;;;20.70;97.30;;;;;;5053597;28;20409;-88
2022/08/27 10:24:26;;;;;;;4.77;3.00;;;20.60;97.30;;;;;;5036360;28;20540;-87
2022/08/27 10:27:00;;;;;;;10.73;4.73;;;20.50;97.30;;;;;;5056087;28;20531;-89
2022/08/27 10:29:38;;;;;;;6.73;3.63;;;20.50;97.30;;;;;;5052907;28;20472;-88
2022/08/27 10:32:42;;;;;;;6.70;3.70;;;20.50;97.30;;;;;;5071231;28;20985;-88
2022/08/27 10:35:26;;;;;;;9.00;3.77;;;20.40;97.30;;;;;;5052512;28;20949;-88
2022/08/27 10:38:13;;;;;;;5.23;3.43;;;20.40;97.30;;;;;;5052760;28;20470;-88
2022/08/27 10:41:03;;;;;;;4.40;4.10;;;20.30;97.30;;;;;;5052654;28;20425;-88
2022/08/27 10:44:00;;;;;;;6.10;3.23;;;20.30;97.30;;;;;;5052446;28;21010;-87
2022/08/27 10:46:53;;;;;;;4.97;3.87;;;20.30;97.30;;;;;;5052597;28;20413;-90
2022/08/27 10:49:42;;;;;;;7.70;4.80;;;20.30;97.30;;;;;;5052675;28;20958;-88
2022/08/27 10:52:23;;;;;;;7.17;4.77;;;20.20;97.30;;;;;;5037058;28;20481;-87
2022/08/27 10:54:55;;;;;;;6.80;3.93;;;20.20;97.30;;;;;;5052590;28;20513;-88
2022/08/27 10:57:41;;;;;;;13.23;5.80;;;20.20;97.30;;;;;;5052665;28;20459;-88
2022/08/27 11:00:14;;;;;;;11.73;6.43;;;20.20;97.30;;;;;;5052778;28;20433;-89
2022/08/27 11:02:49;;;;;;;8.33;3.87;;;20.20;97.30;;;;;;5052911;28;20775;-88
2022/08/27 11:05:38;;;;;;;13.43;4.80;;;20.30;97.30;;;;;;5070443;28;20414;-87
2022/08/27 11:08:24;;;;;;;18.90;5.83;;;20.30;97.30;;;;;;5051773;28;20421;-87
2022/08/27 11:11:00;;;;;;;18.77;8.40;;;20.40;97.30;;;;;;5054182;28;20909;-88
2022/08/27 11:13:30;;;;;;;8.80;4.77;;;20.40;97.30;;;;;;5056733;28;20937;-87
2022/08/27 11:15:56;;;;;;;10.23;5.60;;;20.50;97.30;;;;;;5073703;28;20425;-88
2022/08/27 11:18:48;;;;;;;10.30;5.50;;;20.50;97.30;;;;;;5056506;28;20421;-88
2022/08/27 11:22:03;;;;;;;12.20;7.20;;;20.60;97.30;;;;;;5056161;28;20406;-88
2022/08/27 11:24:48;;;;;;;5.97;5.13;;;20.60;97.30;;;;;;4956451;28;20677;-87
2022/08/27 11:27:22;;;;;;;9.47;5.57;;;20.70;97.30;;;;;;5055696;28;20746;-87
2022/08/27 11:30:06;;;;;;;8.87;5.03;;;20.70;97.30;;;;;;5055873;28;20441;-87
2022/08/27 11:32:54;;;;;;;15.20;7.73;;;20.80;97.30;;;;;;5055852;28;20520;-87
2022/08/27 11:35:48;;;;;;;10.93;3.40;;;20.80;97.30;;;;;;5055633;28;20437;-88
2022/08/27 11:38:29;;;;;;;6.87;3.70;;;20.90;97.30;;;;;;5055553;28;20406;-88
2022/08/27 11:41:33;;;;;;;9.57;4.80;;;20.90;97.30;;;;;;5055229;28;20482;-87
2022/08/27 11:43:59;;;;;;;7.97;4.40;;;20.90;97.30;;;;;;5006486;28;20957;-88
2022/08/27 11:46:27;;;;;;;19.97;5.77;;;20.90;97.30;;;;;;5055552;28;20886;-88
2022/08/27 11:49:02;;;;;;;11.60;5.77;;;20.90;97.30;;;;;;5055551;28;20416;-88
2022/08/27 11:51:34;;;;;;;6.37;3.43;;;21.00;97.30;;;;;;5055664;28;20453;-89
2022/08/27 11:54:06;;;;;;;11.60;5.50;;;21.00;97.30;;;;;;5055809;28;20406;-87
2022/08/27 11:56:34;;;;;;;10.00;4.33;;;21.10;97.30;;;;;;5055980;28;20452;-88
2022/08/27 11:59:38;;;;;;;6.70;2.77;;;21.20;97.30;;;;;;5055197;28;20524;-89
2022/08/27 12:02:30;;;;;;;7.47;4.10;;;21.30;97.30;;;;;;4956935;28;20425;-88
2022/08/27 12:05:17;;;;;;;5.13;3.50;;;21.30;97.30;;;;;;4961846;28;20951;-88
2022/08/27 12:07:47;;;;;;;16.33;7.73;;;21.40;97.30;;;;;;5051782;28;20413;-89
2022/08/27 12:10:19;;;;;;;6.90;4.70;;;21.40;97.30;;;;;;5055402;28;20437;-88
2022/08/27 12:13:04;;;;;;;9.07;4.53;;;21.40;97.30;;;;;;5054764;28;20456;-88
2022/08/27 12:16:04;;;;;;;10.90;5.57;;;21.50;97.30;;;;;;5055261;28;20782;-88
2022/08/27 12:18:50;;;;;;;10.27;4.67;;;21.60;97.30;;;;;;5008872;28;20421;-88
2022/08/27 12:21:34;;;;;;;9.37;4.43;;;21.60;97.30;;;;;;5054687;28;20416;-90
2022/08/27 12:24:18;;;;;;;7.80;4.83;;;21.70;97.30;;;;;;5055414;28;20517;-88
2022/08/27 12:26:58;;;;;;;14.13;6.30;;;21.80;97.30;;;;;;5054847;28;20504;-89
2022/08/27 12:29:58;;;;;;;17.00;9.23;;;21.90;97.30;;;;;;5054742;28;20502;-90
2022/08/27 12:32:33;;;;;;;8.63;5.07;;;22.00;97.30;;;;;;5036930;28;20996;-89
2022/08/27 12:35:13;;;;;;;5.93;3.33;;;22.10;97.30;;;;;;5054779;28;20468;-89
2022/08/27 12:37:55;;;;;;;9.27;5.03;;;22.10;97.30;;;;;;5054991;28;20416;-88
2022/08/27 12:40:41;;;;;;;11.80;4.90;;;22.10;97.30;;;;;;5054794;28;20433;-88
2022/08/27 12:43:27;;;;;;;12.30;4.10;;;22.10;97.30;;;;;;5054795;28;20413;-88
2022/08/27 12:46:05;;;;;;;5.50;3.30;;;22.10;97.30;;;;;;5054538;28;20554;-88
2022/08/27 12:48:35;;;;;;;7.90;5.23;;;22.10;97.30;;;;;;5054564;28;20425;-89
2022/08/27 12:51:07;;;;;;;7.57;5.20;;;22.20;97.30;;;;;;5072149;28;20441;-89
2022/08/27 12:53:52;;;;;;;7.50;6.73;;;22.20;97.30;;;;;;5054492;28;20413;-89
2022/08/27 12:56:17;;;;;;;10.77;3.60;;;22.20;97.30;;;;;;5071501;28;20417;-89
2022/08/27 12:59:03;;;;;;;7.73;3.70;;;22.20;97.30;;;;;;5054263;28;20416;-88
2022/08/27 13:01:45;;;;;;;23.87;4.00;;;22.20;97.30;;;;;;5054074;28;20174;-89
2022/08/27 13:04:24;;;;;;;9.93;4.63;;;22.20;97.30;;;;;;5054056;28;20792;-88
2022/08/27 13:06:50;;;;;;;3.33;2.40;;;22.10;97.30;;;;;;5042942;28;20781;-88
2022/08/27 13:09:34;;;;;;;8.17;3.93;;;22.10;97.30;;;;;;5034069;28;20813;-90
2022/08/27 13:12:02;;;;;;;8.40;3.60;;;22.10;97.30;;;;;;5051690;28;20445;-88
2022/08/27 13:14:38;;;;;;;13.90;6.43;;;22.10;97.30;;;;;;5034102;28;20446;-88
2022/08/27 13:17:13;;;;;;;8.07;5.37;;;22.10;97.30;;;;;;5033726;28;20419;-89
2022/08/27 13:19:54;;;;;;;6.30;4.13;;;22.20;97.30;;;;;;5033899;28;20433;-89
2022/08/27 13:22:34;;;;;;;4.23;3.10;;;22.20;97.30;;;;;;5033870;28;20919;-89
2022/08/27 13:25:00;;;;;;;11.93;3.90;;;22.30;97.30;;;;;;5051577;28;20421;-90
2022/08/27 13:27:29;;;;;;;7.07;3.43;;;22.40;97.30;;;;;;5033921;28;20422;-89
2022/08/27 13:29:57;;;;;;;5.93;3.23;;;22.50;97.30;;;;;;5033907;28;20199;-89
2022/08/27 13:32:26;;;;;;;7.07;3.30;;;22.60;97.30;;;;;;5033217;28;20462;-89
2022/08/27 13:34:52;;;;;;;17.47;5.60;;;22.70;97.30;;;;;;5033261;28;20466;-89
2022/08/27 13:37:38;;;;;;;5.07;3.30;;;22.80;97.30;;;;;;5034163;28;20425;-88
2022/08/27 13:40:04;;;;;;;8.47;3.70;;;22.80;97.30;;;;;;5051737;28;20434;-90
2022/08/27 13:42:30;;;;;;;7.80;4.60;;;22.80;97.30;;;;;;5036080;28;20418;-89